sensor_id;sensor_type;location;lat;lon;timestamp;pressure;altitude;pressure_sealevel;temperature;humidity
28027;BME280;15344;52.342;-1.290;2023-06-04T00:00:17;101124.63;;;15.12;73.16
28027;BME280;15344;52.342;-1.290;2023-06-04T00:02:41;101123.25;;;15.38;71.84
28027;BME280;15344;52.342;-1.290;2023-06-04T00:05:07;101123.85;;;16.04;69.41
28027;BME280;15344;52.342;-1.290;2023-06-04T00:07:32;101126.88;;;15.12;72.75
28027;BME280;15344;52.342;-1.290;2023-06-04T00:09:57;101126.28;;;14.72;72.30
28027;BME280;15344;52.342;-1.290;2023-06-04T00:12:23;101129.54;;;13.90;76.26
28027;BME280;15344;52.342;-1.290;2023-06-04T00:14:48;101126.97;;;15.62;71.53
28027;BME280;15344;52.342;-1.290;2023-06-04T00:17:13;101132.91;;;13.71;78.88
28027;BME280;15344;52.342;-1.290;2023-06-04T00:19:39;101133.19;;;14.18;79.51
28027;BME280;15344;52.342;-1.290;2023-06-04T00:22:04;101129.38;;;15.63;71.76
28027;BME280;15344;52.342;-1.290;2023-06-04T00:24:29;101126.23;;;15.35;72.10
28027;BME280;15344;52.342;-1.290;2023-06-04T00:26:55;101128.55;;;13.87;77.21
28027;BME280;15344;52.342;-1.290;2023-06-04T00:29:20;101121.11;;;15.83;71.83
28027;BME280;15344;52.342;-1.290;2023-06-04T00:31:46;101127.10;;;13.83;81.25
28027;BME280;15344;52.342;-1.290;2023-06-04T00:34:11;101127.31;;;14.44;75.80
28027;BME280;15344;52.342;-1.290;2023-06-04T00:36:36;101127.76;;;14.94;73.75
28027;BME280;15344;52.342;-1.290;2023-06-04T00:39:02;101132.69;;;15.50;71.15
28027;BME280;15344;52.342;-1.290;2023-06-04T00:41:27;101132.58;;;15.38;71.90
28027;BME280;15344;52.342;-1.290;2023-06-04T00:43:52;101131.60;;;15.75;68.13
28027;BME280;15344;52.342;-1.290;2023-06-04T00:46:18;101133.08;;;16.09;67.29
28027;BME280;15344;52.342;-1.290;2023-06-04T00:48:43;101132.69;;;15.69;69.11
28027;BME280;15344;52.342;-1.290;2023-06-04T00:51:08;101132.55;;;16.32;67.27
28027;BME280;15344;52.342;-1.290;2023-06-04T00:53:34;101133.28;;;15.01;69.66
28027;BME280;15344;52.342;-1.290;2023-06-04T00:55:59;101128.28;;;16.12;66.13
28027;BME280;15344;52.342;-1.290;2023-06-04T00:58:24;101128.67;;;15.48;67.62
28027;BME280;15344;52.342;-1.290;2023-06-04T01:00:50;101131.44;;;15.91;68.60
28027;BME280;15344;52.342;-1.290;2023-06-04T01:03:18;101135.42;;;13.87;75.12
28027;BME280;15344;52.342;-1.290;2023-06-04T01:05:50;101131.14;;;15.93;67.37
28027;BME280;15344;52.342;-1.290;2023-06-04T01:08:06;101132.08;;;15.76;67.16
28027;BME280;15344;52.342;-1.290;2023-06-04T01:10:31;101137.07;;;16.38;65.25
28027;BME280;15344;52.342;-1.290;2023-06-04T01:12:56;101134.95;;;15.92;66.77
28027;BME280;15344;52.342;-1.290;2023-06-04T01:15:21;101137.07;;;16.27;65.33
28027;BME280;15344;52.342;-1.290;2023-06-04T01:17:51;101139.63;;;15.65;66.04
28027;BME280;15344;52.342;-1.290;2023-06-04T01:20:22;101139.13;;;15.57;66.33
28027;BME280;15344;52.342;-1.290;2023-06-04T01:22:43;101139.30;;;16.41;63.34
28027;BME280;15344;52.342;-1.290;2023-06-04T01:25:07;101137.40;;;15.88;66.13
28027;BME280;15344;52.342;-1.290;2023-06-04T01:27:30;101132.48;;;15.66;67.55
28027;BME280;15344;52.342;-1.290;2023-06-04T01:29:55;101132.51;;;16.56;63.77
28027;BME280;15344;52.342;-1.290;2023-06-04T01:32:20;101133.26;;;16.02;64.86
28027;BME280;15344;52.342;-1.290;2023-06-04T01:34:45;101141.60;;;14.47;70.75
28027;BME280;15344;52.342;-1.290;2023-06-04T01:37:10;101136.30;;;15.89;66.92
28027;BME280;15344;52.342;-1.290;2023-06-04T01:39:36;101136.42;;;15.54;68.06
28027;BME280;15344;52.342;-1.290;2023-06-04T01:42:01;101138.66;;;15.21;69.96
28027;BME280;15344;52.342;-1.290;2023-06-04T01:44:26;101141.45;;;15.05;71.53
28027;BME280;15344;52.342;-1.290;2023-06-04T01:46:52;101143.12;;;14.78;73.59
28027;BME280;15344;52.342;-1.290;2023-06-04T01:49:17;101144.35;;;14.76;73.93
28027;BME280;15344;52.342;-1.290;2023-06-04T01:51:43;101147.33;;;15.58;71.62
28027;BME280;15344;52.342;-1.290;2023-06-04T01:54:08;101153.28;;;13.71;78.03
28027;BME280;15344;52.342;-1.290;2023-06-04T01:56:33;101154.86;;;14.34;76.64
28027;BME280;15344;52.342;-1.290;2023-06-04T01:58:59;101151.77;;;15.12;73.30
28027;BME280;15344;52.342;-1.290;2023-06-04T02:01:24;101149.38;;;15.30;71.89
28027;BME280;15344;52.342;-1.290;2023-06-04T02:03:49;101156.76;;;14.91;74.81
28027;BME280;15344;52.342;-1.290;2023-06-04T02:06:15;101151.46;;;14.64;75.75
28027;BME280;15344;52.342;-1.290;2023-06-04T02:08:40;101148.88;;;13.69;81.84
28027;BME280;15344;52.342;-1.290;2023-06-04T02:11:05;101150.63;;;14.44;78.09
28027;BME280;15344;52.342;-1.290;2023-06-04T02:13:31;101148.32;;;14.40;77.55
28027;BME280;15344;52.342;-1.290;2023-06-04T02:15:56;101153.60;;;14.36;79.93
28027;BME280;15344;52.342;-1.290;2023-06-04T02:18:22;101150.41;;;13.93;82.19
28027;BME280;15344;52.342;-1.290;2023-06-04T02:20:48;101148.13;;;14.88;77.98
28027;BME280;15344;52.342;-1.290;2023-06-04T02:23:14;101146.41;;;14.92;76.78
28027;BME280;15344;52.342;-1.290;2023-06-04T02:25:38;101144.80;;;13.97;83.09
28027;BME280;15344;52.342;-1.290;2023-06-04T02:28:04;101144.33;;;14.15;81.73
28027;BME280;15344;52.342;-1.290;2023-06-04T02:30:29;101143.02;;;14.07;79.03
28027;BME280;15344;52.342;-1.290;2023-06-04T02:32:55;101142.29;;;14.18;80.19
28027;BME280;15344;52.342;-1.290;2023-06-04T02:35:20;101137.15;;;12.92;87.97
28027;BME280;15344;52.342;-1.290;2023-06-04T02:37:45;101133.38;;;13.05;88.12
28027;BME280;15344;52.342;-1.290;2023-06-04T02:40:11;101137.62;;;13.48;85.78
28027;BME280;15344;52.342;-1.290;2023-06-04T02:42:36;101137.10;;;13.06;90.12
28027;BME280;15344;52.342;-1.290;2023-06-04T02:45:02;101143.20;;;11.76;97.45
28027;BME280;15344;52.342;-1.290;2023-06-04T02:47:27;101138.87;;;13.71;89.30
28027;BME280;15344;52.342;-1.290;2023-06-04T02:49:53;101135.73;;;13.72;86.77
28027;BME280;15344;52.342;-1.290;2023-06-04T02:52:18;101135.53;;;13.81;88.03
28027;BME280;15344;52.342;-1.290;2023-06-04T02:54:44;101131.73;;;13.90;88.34
28027;BME280;15344;52.342;-1.290;2023-06-04T02:57:10;101134.69;;;14.48;85.87
28027;BME280;15344;52.342;-1.290;2023-06-04T02:59:36;101133.93;;;14.21;84.66
28027;BME280;15344;52.342;-1.290;2023-06-04T03:02:01;101135.82;;;13.07;88.80
28027;BME280;15344;52.342;-1.290;2023-06-04T03:04:27;101135.04;;;13.92;85.03
28027;BME280;15344;52.342;-1.290;2023-06-04T03:06:52;101134.06;;;13.97;84.97
28027;BME280;15344;52.342;-1.290;2023-06-04T03:09:18;101141.44;;;14.02;84.79
28027;BME280;15344;52.342;-1.290;2023-06-04T03:11:43;101141.69;;;14.12;82.48
28027;BME280;15344;52.342;-1.290;2023-06-04T03:14:09;101136.91;;;13.24;90.63
28027;BME280;15344;52.342;-1.290;2023-06-04T03:16:34;101136.85;;;13.60;87.11
28027;BME280;15344;52.342;-1.290;2023-06-04T03:19:00;101138.37;;;13.81;88.22
28027;BME280;15344;52.342;-1.290;2023-06-04T03:21:25;101140.51;;;14.76;84.27
28027;BME280;15344;52.342;-1.290;2023-06-04T03:23:50;101136.68;;;14.04;88.61
28027;BME280;15344;52.342;-1.290;2023-06-04T03:26:15;101129.96;;;13.28;93.10
28027;BME280;15344;52.342;-1.290;2023-06-04T03:28:40;101129.08;;;14.05;88.89
28027;BME280;15344;52.342;-1.290;2023-06-04T03:31:06;101127.16;;;13.79;91.31
28027;BME280;15344;52.342;-1.290;2023-06-04T03:33:32;101127.58;;;12.77;95.25
28027;BME280;15344;52.342;-1.290;2023-06-04T03:35:58;101127.91;;;13.95;88.26
28027;BME280;15344;52.342;-1.290;2023-06-04T03:38:24;101130.67;;;13.78;88.61
28027;BME280;15344;52.342;-1.290;2023-06-04T03:40:49;101128.96;;;13.47;88.80
28027;BME280;15344;52.342;-1.290;2023-06-04T03:43:15;101126.02;;;15.17;81.36
28027;BME280;15344;52.342;-1.290;2023-06-04T03:45:41;101130.62;;;14.79;79.22
28027;BME280;15344;52.342;-1.290;2023-06-04T03:48:05;101126.56;;;16.02;75.76
28027;BME280;15344;52.342;-1.290;2023-06-04T03:50:31;101126.02;;;15.54;74.57
28027;BME280;15344;52.342;-1.290;2023-06-04T03:52:57;101128.45;;;15.56;73.73
28027;BME280;15344;52.342;-1.290;2023-06-04T03:55:22;101136.81;;;14.52;78.32
28027;BME280;15344;52.342;-1.290;2023-06-04T03:57:48;101138.72;;;14.04;80.72
28027;BME280;15344;52.342;-1.290;2023-06-04T04:00:14;101138.32;;;15.06;76.40
28027;BME280;15344;52.342;-1.290;2023-06-04T04:02:39;101138.19;;;14.08;81.12
28027;BME280;15344;52.342;-1.290;2023-06-04T04:05:04;101134.68;;;14.91;78.42
28027;BME280;15344;52.342;-1.290;2023-06-04T04:07:29;101138.96;;;14.60;75.78
28027;BME280;15344;52.342;-1.290;2023-06-04T04:09:55;101130.16;;;15.60;74.03
28027;BME280;15344;52.342;-1.290;2023-06-04T04:12:20;101133.11;;;15.48;72.42
28027;BME280;15344;52.342;-1.290;2023-06-04T04:14:45;101136.62;;;15.45;71.80
28027;BME280;15344;52.342;-1.290;2023-06-04T04:17:11;101140.40;;;15.40;71.89
28027;BME280;15344;52.342;-1.290;2023-06-04T04:19:36;101142.42;;;16.66;66.59
28027;BME280;15344;52.342;-1.290;2023-06-04T04:22:02;101142.79;;;16.52;66.68
28027;BME280;15344;52.342;-1.290;2023-06-04T04:24:27;101141.57;;;16.47;66.02
28027;BME280;15344;52.342;-1.290;2023-06-04T04:26:53;101145.38;;;16.35;64.93
28027;BME280;15344;52.342;-1.290;2023-06-04T04:29:18;101142.16;;;15.25;69.05
28027;BME280;15344;52.342;-1.290;2023-06-04T04:31:43;101143.51;;;16.00;66.76
28027;BME280;15344;52.342;-1.290;2023-06-04T04:34:08;101138.82;;;15.95;66.15
28027;BME280;15344;52.342;-1.290;2023-06-04T04:36:34;101133.16;;;15.67;67.94
28027;BME280;15344;52.342;-1.290;2023-06-04T04:38:59;101136.09;;;14.48;72.26
28027;BME280;15344;52.342;-1.290;2023-06-04T04:41:24;101129.86;;;15.33;69.31
28027;BME280;15344;52.342;-1.290;2023-06-04T04:43:53;101136.53;;;14.93;70.61
28027;BME280;15344;52.342;-1.290;2023-06-04T04:46:15;101140.28;;;15.92;67.38
28027;BME280;15344;52.342;-1.290;2023-06-04T04:48:40;101146.40;;;15.06;70.64
28027;BME280;15344;52.342;-1.290;2023-06-04T04:51:06;101140.46;;;15.29;69.84
28027;BME280;15344;52.342;-1.290;2023-06-04T04:53:31;101142.20;;;14.44;71.37
28027;BME280;15344;52.342;-1.290;2023-06-04T04:55:57;101138.80;;;14.97;70.89
28027;BME280;15344;52.342;-1.290;2023-06-04T04:58:22;101147.34;;;14.99;72.64
28027;BME280;15344;52.342;-1.290;2023-06-04T05:00:48;101144.31;;;15.32;69.65
28027;BME280;15344;52.342;-1.290;2023-06-04T05:03:14;101147.83;;;15.18;70.85
28027;BME280;15344;52.342;-1.290;2023-06-04T05:05:39;101144.64;;;15.42;69.91
28027;BME280;15344;52.342;-1.290;2023-06-04T05:08:05;101149.10;;;14.19;74.16
28027;BME280;15344;52.342;-1.290;2023-06-04T05:10:30;101145.58;;;14.87;74.26
28027;BME280;15344;52.342;-1.290;2023-06-04T05:12:57;101139.57;;;15.04;71.98
28027;BME280;15344;52.342;-1.290;2023-06-04T05:15:21;101149.10;;;14.15;74.53
28027;BME280;15344;52.342;-1.290;2023-06-04T05:17:46;101150.26;;;14.82;74.76
28027;BME280;15344;52.342;-1.290;2023-06-04T05:20:11;101149.44;;;14.48;72.94
28027;BME280;15344;52.342;-1.290;2023-06-04T05:22:37;101149.92;;;13.51;76.25
28027;BME280;15344;52.342;-1.290;2023-06-04T05:25:04;101145.22;;;15.29;70.91
28027;BME280;15344;52.342;-1.290;2023-06-04T05:27:28;101150.29;;;14.89;71.48
28027;BME280;15344;52.342;-1.290;2023-06-04T05:29:53;101149.07;;;14.95;73.72
28027;BME280;15344;52.342;-1.290;2023-06-04T05:32:18;101148.41;;;13.10;80.04
28027;BME280;15344;52.342;-1.290;2023-06-04T05:34:44;101149.05;;;14.28;77.45
28027;BME280;15344;52.342;-1.290;2023-06-04T05:37:10;101156.11;;;14.51;77.22
28027;BME280;15344;52.342;-1.290;2023-06-04T05:39:35;101156.51;;;14.11;77.78
28027;BME280;15344;52.342;-1.290;2023-06-04T05:42:01;101159.85;;;14.02;79.28
28027;BME280;15344;52.342;-1.290;2023-06-04T05:44:26;101165.26;;;14.38;77.41
28027;BME280;15344;52.342;-1.290;2023-06-04T05:46:52;101162.46;;;13.44;80.55
28027;BME280;15344;52.342;-1.290;2023-06-04T05:49:17;101164.27;;;13.41;82.12
28027;BME280;15344;52.342;-1.290;2023-06-04T05:51:43;101167.80;;;12.93;84.85
28027;BME280;15344;52.342;-1.290;2023-06-04T05:54:08;101169.13;;;12.72;84.76
28027;BME280;15344;52.342;-1.290;2023-06-04T05:56:34;101167.75;;;12.58;86.19
28027;BME280;15344;52.342;-1.290;2023-06-04T05:58:59;101166.22;;;14.20;79.40
28027;BME280;15344;52.342;-1.290;2023-06-04T06:01:24;101167.90;;;15.17;76.19
28027;BME280;15344;52.342;-1.290;2023-06-04T06:03:50;101168.43;;;14.26;80.37
28027;BME280;15344;52.342;-1.290;2023-06-04T06:06:15;101171.52;;;13.66;82.11
28027;BME280;15344;52.342;-1.290;2023-06-04T06:08:41;101176.48;;;14.33;79.03
28027;BME280;15344;52.342;-1.290;2023-06-04T06:11:06;101177.63;;;14.64;77.87
28027;BME280;15344;52.342;-1.290;2023-06-04T06:13:32;101172.28;;;15.42;74.90
28027;BME280;15344;52.342;-1.290;2023-06-04T06:15:57;101175.51;;;13.83;78.08
28027;BME280;15344;52.342;-1.290;2023-06-04T06:18:22;101171.68;;;14.89;76.67
28027;BME280;15344;52.342;-1.290;2023-06-04T06:20:47;101178.80;;;15.27;74.19
28027;BME280;15344;52.342;-1.290;2023-06-04T06:23:13;101175.77;;;12.65;84.78
28027;BME280;15344;52.342;-1.290;2023-06-04T06:25:38;101175.34;;;13.42;83.95
28027;BME280;15344;52.342;-1.290;2023-06-04T06:28:04;101177.35;;;14.35;80.94
28027;BME280;15344;52.342;-1.290;2023-06-04T06:30:29;101183.58;;;14.14;85.81
28027;BME280;15344;52.342;-1.290;2023-06-04T06:32:55;101180.38;;;14.33;87.70
28027;BME280;15344;52.342;-1.290;2023-06-04T06:35:20;101175.93;;;13.52;86.88
28027;BME280;15344;52.342;-1.290;2023-06-04T06:37:45;101176.95;;;14.50;92.08
28027;BME280;15344;52.342;-1.290;2023-06-04T06:40:11;101176.25;;;15.04;84.70
28027;BME280;15344;52.342;-1.290;2023-06-04T06:42:35;101178.23;;;14.30;89.10
28027;BME280;15344;52.342;-1.290;2023-06-04T06:45:01;101177.04;;;13.06;95.27
28027;BME280;15344;52.342;-1.290;2023-06-04T06:47:26;101175.63;;;13.51;95.19
28027;BME280;15344;52.342;-1.290;2023-06-04T06:49:51;101174.86;;;15.22;85.37
28027;BME280;15344;52.342;-1.290;2023-06-04T06:52:16;101173.96;;;14.79;81.14
28027;BME280;15344;52.342;-1.290;2023-06-04T06:54:41;101175.25;;;14.79;85.55
28027;BME280;15344;52.342;-1.290;2023-06-04T06:57:06;101180.31;;;14.64;88.44
28027;BME280;15344;52.342;-1.290;2023-06-04T06:59:32;101180.72;;;15.15;81.11
28027;BME280;15344;52.342;-1.290;2023-06-04T07:01:58;101178.63;;;15.29;82.64
28027;BME280;15344;52.342;-1.290;2023-06-04T07:04:23;101177.10;;;15.72;83.05
28027;BME280;15344;52.342;-1.290;2023-06-04T07:06:48;101180.22;;;15.08;79.00
28027;BME280;15344;52.342;-1.290;2023-06-04T07:09:13;101183.46;;;15.63;81.04
28027;BME280;15344;52.342;-1.290;2023-06-04T07:11:39;101182.30;;;15.91;77.70
28027;BME280;15344;52.342;-1.290;2023-06-04T07:14:04;101185.45;;;16.12;76.70
28027;BME280;15344;52.342;-1.290;2023-06-04T07:16:29;101186.64;;;16.42;75.76
28027;BME280;15344;52.342;-1.290;2023-06-04T07:18:55;101189.51;;;16.53;71.43
28027;BME280;15344;52.342;-1.290;2023-06-04T07:21:20;101193.05;;;15.19;77.44
28027;BME280;15344;52.342;-1.290;2023-06-04T07:23:45;101193.04;;;16.60;74.88
28027;BME280;15344;52.342;-1.290;2023-06-04T07:26:10;101190.23;;;16.46;72.21
28027;BME280;15344;52.342;-1.290;2023-06-04T07:28:36;101190.86;;;15.49;73.15
28027;BME280;15344;52.342;-1.290;2023-06-04T07:31:01;101192.29;;;16.13;72.13
28027;BME280;15344;52.342;-1.290;2023-06-04T07:33:27;101187.89;;;16.40;72.99
28027;BME280;15344;52.342;-1.290;2023-06-04T07:35:53;101185.57;;;15.87;69.74
28027;BME280;15344;52.342;-1.290;2023-06-04T07:38:18;101191.49;;;16.07;73.00
28027;BME280;15344;52.342;-1.290;2023-06-04T07:40:43;101188.35;;;16.48;73.39
28027;BME280;15344;52.342;-1.290;2023-06-04T07:43:08;101188.78;;;15.26;74.10
28027;BME280;15344;52.342;-1.290;2023-06-04T07:45:33;101189.21;;;16.27;71.47
28027;BME280;15344;52.342;-1.290;2023-06-04T07:47:59;101199.74;;;15.95;70.53
28027;BME280;15344;52.342;-1.290;2023-06-04T07:50:24;101193.03;;;17.30;68.85
28027;BME280;15344;52.342;-1.290;2023-06-04T07:52:49;101186.88;;;17.27;64.35
28027;BME280;15344;52.342;-1.290;2023-06-04T07:55:14;101186.50;;;18.44;58.78
28027;BME280;15344;52.342;-1.290;2023-06-04T07:57:39;101183.02;;;19.16;59.25
28027;BME280;15344;52.342;-1.290;2023-06-04T08:00:07;101184.48;;;20.10;57.04
28027;BME280;15344;52.342;-1.290;2023-06-04T08:02:29;101190.16;;;20.25;52.61
28027;BME280;15344;52.342;-1.290;2023-06-04T08:04:55;101193.76;;;21.08;49.44
28027;BME280;15344;52.342;-1.290;2023-06-04T08:07:20;101196.43;;;20.36;49.57
28027;BME280;15344;52.342;-1.290;2023-06-04T08:09:44;101194.01;;;22.90;49.57
28027;BME280;15344;52.342;-1.290;2023-06-04T08:12:10;101190.69;;;22.13;46.33
28027;BME280;15344;52.342;-1.290;2023-06-04T08:14:36;101188.46;;;22.80;43.78
28027;BME280;15344;52.342;-1.290;2023-06-04T08:17:02;101185.01;;;23.11;44.77
28027;BME280;15344;52.342;-1.290;2023-06-04T08:19:28;101181.55;;;24.59;44.65
28027;BME280;15344;52.342;-1.290;2023-06-04T08:21:54;101181.71;;;22.51;42.80
28027;BME280;15344;52.342;-1.290;2023-06-04T08:24:19;101180.90;;;22.65;42.92
28027;BME280;15344;52.342;-1.290;2023-06-04T08:26:45;101179.40;;;23.86;43.12
28027;BME280;15344;52.342;-1.290;2023-06-04T08:29:11;101181.08;;;25.07;40.97
28027;BME280;15344;52.342;-1.290;2023-06-04T08:31:37;101183.74;;;24.07;42.24
28027;BME280;15344;52.342;-1.290;2023-06-04T08:34:02;101184.59;;;23.73;41.20
28027;BME280;15344;52.342;-1.290;2023-06-04T08:36:28;101184.26;;;23.68;40.36
28027;BME280;15344;52.342;-1.290;2023-06-04T08:38:54;101185.09;;;27.25;39.57
28027;BME280;15344;52.342;-1.290;2023-06-04T08:41:27;101184.98;;;25.62;37.44
28027;BME280;15344;52.342;-1.290;2023-06-04T08:43:45;101184.35;;;24.16;39.18
28027;BME280;15344;52.342;-1.290;2023-06-04T08:46:11;101181.81;;;24.53;37.75
28027;BME280;15344;52.342;-1.290;2023-06-04T08:48:38;101186.83;;;26.83;36.82
28027;BME280;15344;52.342;-1.290;2023-06-04T08:51:06;101182.53;;;24.60;38.16
28027;BME280;15344;52.342;-1.290;2023-06-04T08:53:30;101182.29;;;26.88;35.79
28027;BME280;15344;52.342;-1.290;2023-06-04T08:55:55;101177.66;;;27.48;36.16
28027;BME280;15344;52.342;-1.290;2023-06-04T08:58:20;101183.37;;;26.70;32.99
28027;BME280;15344;52.342;-1.290;2023-06-04T09:00:45;101184.12;;;27.31;33.59
28027;BME280;15344;52.342;-1.290;2023-06-04T09:03:12;101183.57;;;27.00;32.96
28027;BME280;15344;52.342;-1.290;2023-06-04T09:05:36;101186.13;;;26.70;33.14
28027;BME280;15344;52.342;-1.290;2023-06-04T09:08:04;101177.27;;;25.21;35.81
28027;BME280;15344;52.342;-1.290;2023-06-04T09:10:29;101182.12;;;26.95;31.67
28027;BME280;15344;52.342;-1.290;2023-06-04T09:12:54;101186.88;;;27.08;33.65
28027;BME280;15344;52.342;-1.290;2023-06-04T09:15:19;101182.54;;;24.71;34.91
28027;BME280;15344;52.342;-1.290;2023-06-04T09:17:45;101186.44;;;26.90;34.65
28027;BME280;15344;52.342;-1.290;2023-06-04T09:20:18;101183.62;;;25.78;34.66
28027;BME280;15344;52.342;-1.290;2023-06-04T09:22:37;101188.98;;;26.65;34.52
28027;BME280;15344;52.342;-1.290;2023-06-04T09:25:04;101183.44;;;26.61;33.12
28027;BME280;15344;52.342;-1.290;2023-06-04T09:27:37;101180.33;;;25.18;33.90
28027;BME280;15344;52.342;-1.290;2023-06-04T09:29:55;101182.64;;;26.08;34.42
28027;BME280;15344;52.342;-1.290;2023-06-04T09:32:22;101180.42;;;26.88;34.56
28027;BME280;15344;52.342;-1.290;2023-06-04T09:34:45;101176.18;;;27.12;33.06
28027;BME280;15344;52.342;-1.290;2023-06-04T09:37:14;101175.58;;;25.61;35.12
28027;BME280;15344;52.342;-1.290;2023-06-04T09:39:36;101172.50;;;24.80;36.39
28027;BME280;15344;52.342;-1.290;2023-06-04T09:42:02;101172.21;;;24.81;36.94
28027;BME280;15344;52.342;-1.290;2023-06-04T09:44:28;101172.59;;;26.27;34.35
28027;BME280;15344;52.342;-1.290;2023-06-04T09:46:55;101162.81;;;28.19;31.51
28027;BME280;15344;52.342;-1.290;2023-06-04T09:49:19;101167.54;;;27.77;33.08
28027;BME280;15344;52.342;-1.290;2023-06-04T09:51:47;101170.98;;;27.49;32.29
28027;BME280;15344;52.342;-1.290;2023-06-04T09:54:10;101177.29;;;26.19;32.81
28027;BME280;15344;52.342;-1.290;2023-06-04T09:56:39;101174.93;;;27.55;33.91
28027;BME280;15344;52.342;-1.290;2023-06-04T09:59:02;101181.24;;;27.82;31.50
28027;BME280;15344;52.342;-1.290;2023-06-04T10:01:28;101181.88;;;26.04;33.69
28027;BME280;15344;52.342;-1.290;2023-06-04T10:03:54;101191.09;;;25.83;33.99
28027;BME280;15344;52.342;-1.290;2023-06-04T10:06:19;101186.84;;;25.83;34.12
28027;BME280;15344;52.342;-1.290;2023-06-04T10:08:46;101184.07;;;27.34;33.69
28027;BME280;15344;52.342;-1.290;2023-06-04T10:11:11;101186.58;;;24.60;37.49
28027;BME280;15344;52.342;-1.290;2023-06-04T10:13:41;101182.59;;;25.75;34.94
28027;BME280;15344;52.342;-1.290;2023-06-04T10:16:01;101185.98;;;24.89;36.02
28027;BME280;15344;52.342;-1.290;2023-06-04T10:18:27;101192.89;;;27.07;34.35
28027;BME280;15344;52.342;-1.290;2023-06-04T10:20:53;101190.25;;;26.00;33.99
28027;BME280;15344;52.342;-1.290;2023-06-04T10:23:18;101190.54;;;26.67;32.98
28027;BME280;15344;52.342;-1.290;2023-06-04T10:25:44;101191.28;;;25.71;33.69
28027;BME280;15344;52.342;-1.290;2023-06-04T10:28:09;101193.02;;;25.97;34.21
28027;BME280;15344;52.342;-1.290;2023-06-04T10:30:35;101193.36;;;24.45;35.60
28027;BME280;15344;52.342;-1.290;2023-06-04T10:33:01;101191.89;;;23.49;36.59
28027;BME280;15344;52.342;-1.290;2023-06-04T10:35:30;101186.97;;;25.07;35.05
28027;BME280;15344;52.342;-1.290;2023-06-04T10:37:52;101190.20;;;26.51;36.82
28027;BME280;15344;52.342;-1.290;2023-06-04T10:40:18;101194.79;;;26.01;35.80
28027;BME280;15344;52.342;-1.290;2023-06-04T10:42:43;101201.74;;;27.10;36.38
28027;BME280;15344;52.342;-1.290;2023-06-04T10:45:10;101203.10;;;26.82;34.43
28027;BME280;15344;52.342;-1.290;2023-06-04T10:47:35;101198.07;;;25.21;36.68
28027;BME280;15344;52.342;-1.290;2023-06-04T10:50:07;101199.40;;;25.16;36.09
28027;BME280;15344;52.342;-1.290;2023-06-04T10:52:26;101193.10;;;24.81;38.66
28027;BME280;15344;52.342;-1.290;2023-06-04T10:55:02;101191.15;;;24.85;36.07
28027;BME280;15344;52.342;-1.290;2023-06-04T10:57:18;101190.55;;;25.20;36.04
28027;BME280;15344;52.342;-1.290;2023-06-04T11:02:09;101193.06;;;26.00;34.80
28027;BME280;15344;52.342;-1.290;2023-06-04T11:04:36;101196.17;;;24.79;37.48
28027;BME280;15344;52.342;-1.290;2023-06-04T11:07:01;101195.70;;;23.44;38.02
28027;BME280;15344;52.342;-1.290;2023-06-04T11:09:27;101197.93;;;25.06;35.92
28027;BME280;15344;52.342;-1.290;2023-06-04T11:11:57;101189.64;;;22.90;38.00
28027;BME280;15344;52.342;-1.290;2023-06-04T11:14:18;101187.31;;;23.52;39.77
28027;BME280;15344;52.342;-1.290;2023-06-04T11:16:44;101190.12;;;23.89;39.49
28027;BME280;15344;52.342;-1.290;2023-06-04T11:19:09;101196.35;;;23.79;39.09
28027;BME280;15344;52.342;-1.290;2023-06-04T11:21:35;101200.96;;;22.37;41.96
28027;BME280;15344;52.342;-1.290;2023-06-04T11:24:01;101199.37;;;22.18;41.71
28027;BME280;15344;52.342;-1.290;2023-06-04T11:26:30;101192.55;;;24.62;40.29
28027;BME280;15344;52.342;-1.290;2023-06-04T11:28:53;101198.37;;;22.18;43.53
28027;BME280;15344;52.342;-1.290;2023-06-04T11:31:18;101189.03;;;23.12;41.81
28027;BME280;15344;52.342;-1.290;2023-06-04T11:33:45;101192.01;;;22.99;39.25
28027;BME280;15344;52.342;-1.290;2023-06-04T11:36:10;101198.57;;;22.02;42.11
28027;BME280;15344;52.342;-1.290;2023-06-04T11:38:36;101197.56;;;21.80;43.28
28027;BME280;15344;52.342;-1.290;2023-06-04T11:41:02;101191.19;;;22.73;43.08
28027;BME280;15344;52.342;-1.290;2023-06-04T11:43:28;101190.60;;;21.18;47.53
28027;BME280;15344;52.342;-1.290;2023-06-04T11:45:53;101193.94;;;22.55;42.72
28027;BME280;15344;52.342;-1.290;2023-06-04T11:48:18;101188.73;;;23.15;40.21
28027;BME280;15344;52.342;-1.290;2023-06-04T11:50:44;101181.87;;;23.91;39.64
28027;BME280;15344;52.342;-1.290;2023-06-04T11:53:09;101183.11;;;22.97;40.24
28027;BME280;15344;52.342;-1.290;2023-06-04T11:55:35;101184.08;;;22.50;40.60
28027;BME280;15344;52.342;-1.290;2023-06-04T11:58:01;101178.60;;;23.19;40.68
28027;BME280;15344;52.342;-1.290;2023-06-04T12:00:27;101174.47;;;23.29;40.49
28027;BME280;15344;52.342;-1.290;2023-06-04T12:02:54;101174.15;;;23.49;40.36
28027;BME280;15344;52.342;-1.290;2023-06-04T12:05:20;101174.74;;;23.45;39.64
28027;BME280;15344;52.342;-1.290;2023-06-04T12:07:45;101176.01;;;22.32;38.83
28027;BME280;15344;52.342;-1.290;2023-06-04T12:10:11;101173.05;;;22.16;41.87
28027;BME280;15344;52.342;-1.290;2023-06-04T12:12:35;101162.39;;;24.40;40.47
28027;BME280;15344;52.342;-1.290;2023-06-04T12:15:02;101163.75;;;23.74;39.67
28027;BME280;15344;52.342;-1.290;2023-06-04T12:17:27;101165.73;;;24.32;40.46
28027;BME280;15344;52.342;-1.290;2023-06-04T12:19:53;101164.02;;;24.31;39.62
28027;BME280;15344;52.342;-1.290;2023-06-04T12:22:19;101162.74;;;24.53;38.50
28027;BME280;15344;52.342;-1.290;2023-06-04T12:24:49;101166.31;;;24.77;37.08
28027;BME280;15344;52.342;-1.290;2023-06-04T12:27:11;101159.05;;;24.72;37.01
28027;BME280;15344;52.342;-1.290;2023-06-04T12:29:37;101158.65;;;24.29;37.32
28027;BME280;15344;52.342;-1.290;2023-06-04T12:32:03;101163.77;;;24.07;40.34